createdAt,value
2018-01-03T00:01:08.818Z,11.23
2018-01-03T00:03:36.671Z,10.82
2018-01-03T00:06:04.553Z,10.30
2018-01-03T00:08:32.534Z,10.55
2018-01-03T00:13:47.080Z,9.85
2018-01-03T00:16:14.915Z,10.02
2018-01-03T00:18:42.796Z,10.43
2018-01-03T00:21:10.650Z,10.25
2018-01-03T00:23:38.518Z,10.90
2018-01-03T00:26:06.352Z,9.50
2018-01-03T00:28:40.334Z,9.23
2018-01-03T00:31:08.161Z,8.57
2018-01-03T00:33:35.992Z,9.10
2018-01-03T00:36:03.857Z,10.80
2018-01-03T00:38:37.661Z,9.20
2018-01-03T00:41:05.524Z,7.00
2018-01-03T00:43:33.392Z,8.40
2018-01-03T00:46:01.293Z,6.85
2018-01-03T00:48:29.103Z,7.80
2018-01-03T00:50:56.975Z,7.20
2018-01-03T00:53:24.824Z,8.13
2018-01-03T00:55:53.268Z,6.95
2018-01-03T00:58:27.489Z,7.85
2018-01-03T01:00:55.331Z,8.07
2018-01-03T01:03:23.199Z,8.07
2018-01-03T01:05:51.035Z,8.45
2018-01-03T01:08:24.889Z,8.43
2018-01-03T01:10:52.735Z,6.72
2018-01-03T01:13:20.581Z,7.75
2018-01-03T01:15:48.444Z,5.55
2018-01-03T01:18:22.782Z,9.32
2018-01-03T01:20:50.656Z,6.05
2018-01-03T01:23:18.530Z,6.65
2018-01-03T01:25:46.417Z,7.72
2018-01-03T01:28:14.266Z,7.18
2018-01-03T01:30:42.120Z,7.75
2018-01-03T01:33:10.006Z,5.65
2018-01-03T01:37:19.021Z,6.28
2018-01-03T01:39:46.903Z,6.60
2018-01-03T01:42:14.752Z,5.22
2018-01-03T01:44:42.615Z,5.45
2018-01-03T01:47:17.133Z,5.53
2018-01-03T01:49:45.030Z,4.45
2018-01-03T01:52:12.848Z,5.30
2018-01-03T01:54:40.716Z,5.40
2018-01-03T01:57:08.572Z,4.65
2018-01-03T01:59:36.424Z,7.25
2018-01-03T02:02:04.291Z,6.25
2018-01-03T02:04:32.127Z,5.45
2018-01-03T02:07:06.118Z,2.87
2018-01-03T02:09:33.966Z,5.22
2018-01-03T02:12:01.820Z,5.60
2018-01-03T02:14:29.664Z,7.30
2018-01-03T02:16:57.483Z,7.35
2018-01-03T02:19:25.378Z,6.32
2018-01-03T02:21:53.278Z,6.28
2018-01-03T02:24:21.116Z,6.12
2018-01-03T02:26:48.992Z,5.97
2018-01-03T02:29:16.913Z,7.43
2018-01-03T02:34:39.069Z,6.90
2018-01-03T02:37:06.892Z,6.93
2018-01-03T02:39:34.734Z,5.90
2018-01-03T02:42:02.589Z,7.70
2018-01-03T02:44:30.510Z,7.28
2018-01-03T02:47:04.909Z,6.87
2018-01-03T02:49:32.775Z,7.75
2018-01-03T02:52:00.641Z,6.47
2018-01-03T02:54:28.499Z,6.68
2018-01-03T02:56:56.349Z,6.28
2018-01-03T02:59:25.764Z,5.90
2018-01-03T03:01:53.639Z,5.80
2018-01-03T03:04:22.632Z,7.60
2018-01-03T03:09:50.927Z,6.72
2018-01-03T03:12:18.770Z,7.20
2018-01-03T03:14:46.809Z,7.50
2018-01-03T03:17:20.865Z,7.32
2018-01-03T03:19:48.799Z,6.65
2018-01-03T03:22:16.657Z,6.43
2018-01-03T03:24:44.544Z,6.80
2018-01-03T03:27:12.390Z,6.80
2018-01-03T03:29:40.216Z,6.80
2018-01-03T03:32:08.068Z,6.95
2018-01-03T03:34:37.223Z,5.57
2018-01-03T03:37:05.104Z,6.68
2018-01-03T03:39:33.980Z,6.68
2018-01-03T03:42:01.872Z,5.53
2018-01-03T03:44:31.034Z,5.97
2018-01-03T03:49:50.646Z,5.35
2018-01-03T03:55:14.648Z,5.37
2018-01-03T03:57:49.161Z,6.85
2018-01-03T04:00:19.089Z,5.72
2018-01-03T04:05:41.335Z,5.35
2018-01-03T04:08:10.016Z,6.28
2018-01-03T04:10:52.756Z,5.00
2018-01-03T04:13:20.847Z,7.03
2018-01-03T04:15:48.716Z,5.20
2018-01-03T04:18:16.566Z,5.35
2018-01-03T04:20:44.394Z,5.93
2018-01-03T04:23:12.252Z,6.15
2018-01-03T04:25:42.382Z,6.97
2018-01-03T04:31:05.271Z,5.65
2018-01-03T04:33:33.765Z,5.72
2018-01-03T04:36:01.746Z,7.60
2018-01-03T04:38:29.588Z,7.55
2018-01-03T04:40:57.428Z,5.82
2018-01-03T04:43:25.352Z,6.20
2018-01-03T04:45:53.148Z,5.55
2018-01-03T04:48:29.335Z,5.70
2018-01-03T04:50:57.473Z,5.82
2018-01-03T04:53:25.441Z,4.60
2018-01-03T04:55:53.336Z,4.57
2018-01-03T04:58:21.204Z,4.43
2018-01-03T05:00:49.100Z,4.18
2018-01-03T05:03:17.792Z,4.25
2018-01-03T05:05:45.659Z,4.35
2018-01-03T05:11:20.174Z,4.07
2018-01-03T05:13:54.673Z,3.62
2018-01-03T05:16:22.523Z,3.37
2018-01-03T05:18:58.657Z,2.65
2018-01-03T05:21:26.703Z,2.30
2018-01-03T05:23:54.663Z,2.90
2018-01-03T05:26:23.263Z,2.20
2018-01-03T05:28:51.629Z,3.10
2018-01-03T05:31:23.108Z,2.70
2018-01-03T05:33:51.064Z,2.17
2018-01-03T05:36:18.939Z,1.90
2018-01-03T05:38:48.764Z,2.10
2018-01-03T05:41:16.813Z,2.58
2018-01-03T05:43:44.693Z,2.30
2018-01-03T05:46:12.564Z,1.87
2018-01-03T05:48:40.428Z,2.10
2018-01-03T05:51:08.300Z,1.73
2018-01-03T05:53:38.480Z,1.45
2018-01-03T05:56:06.528Z,1.40
2018-01-03T05:58:34.443Z,1.95
2018-01-03T06:01:02.312Z,1.23
2018-01-03T06:03:30.190Z,1.30
2018-01-03T06:06:00.333Z,1.45
2018-01-03T06:11:40.526Z,1.00
2018-01-03T06:14:22.841Z,1.27
2018-01-03T06:16:52.216Z,1.45
2018-01-03T06:19:20.072Z,1.40
2018-01-03T06:21:47.911Z,0.90
2018-01-03T06:24:18.920Z,1.57
2018-01-03T06:26:48.282Z,1.87
2018-01-03T06:32:11.129Z,1.93
2018-01-03T06:34:38.993Z,1.70
2018-01-03T06:37:06.851Z,2.10
2018-01-03T06:39:34.714Z,1.83
2018-01-03T06:42:02.580Z,1.47
2018-01-03T06:44:30.397Z,2.13
2018-01-03T06:46:58.228Z,2.60
2018-01-03T06:49:26.133Z,2.60
2018-01-03T06:51:54.016Z,2.37
2018-01-03T06:54:22.149Z,2.40
2018-01-03T06:59:50.549Z,1.70
2018-01-03T07:02:25.707Z,2.57
2018-01-03T07:07:48.728Z,2.93
2018-01-03T07:10:16.580Z,3.00
2018-01-03T07:12:46.132Z,3.47
2018-01-03T07:15:23.350Z,2.83
2018-01-03T07:17:51.258Z,2.83
2018-01-03T07:20:19.593Z,3.20
2018-01-03T07:22:47.732Z,3.53
2018-01-03T07:25:15.645Z,4.80
2018-01-03T07:30:32.837Z,4.73
2018-01-03T07:33:00.761Z,5.30
2018-01-03T07:38:40.562Z,3.00
2018-01-03T07:41:09.475Z,4.20
2018-01-03T07:43:37.324Z,5.33
2018-01-03T07:46:05.192Z,3.00
2018-01-03T07:51:37.523Z,2.23
2018-01-03T07:54:06.113Z,2.20
2018-01-03T07:56:57.767Z,2.60
2018-01-03T07:59:35.092Z,2.93
2018-01-03T08:02:02.934Z,2.53
2018-01-03T08:04:30.827Z,3.10
2018-01-03T08:06:58.722Z,2.13
2018-01-03T08:09:26.596Z,2.93
2018-01-03T08:11:54.456Z,2.80
2018-01-03T08:14:22.327Z,4.07
2018-01-03T08:16:58.780Z,3.03
2018-01-03T08:19:26.683Z,6.03
2018-01-03T08:21:54.536Z,2.90
2018-01-03T08:24:22.395Z,3.50
2018-01-03T08:26:50.249Z,2.67
2018-01-03T08:29:18.147Z,4.93
2018-01-03T08:31:45.998Z,4.87
2018-01-03T08:34:13.887Z,4.83
2018-01-03T08:36:41.778Z,2.90
2018-01-03T08:39:09.628Z,4.00
2018-01-03T08:41:37.478Z,3.93
2018-01-03T08:44:05.320Z,3.97
2018-01-03T08:46:33.197Z,3.33
2018-01-03T08:49:01.031Z,3.03
2018-01-03T08:51:28.884Z,2.63
2018-01-03T08:53:56.764Z,3.00
2018-01-03T08:56:24.605Z,4.80
2018-01-03T08:58:52.454Z,4.03
2018-01-03T09:01:20.305Z,3.63
2018-01-03T09:03:48.147Z,3.50
2018-01-03T09:06:15.966Z,3.63
2018-01-03T09:08:43.788Z,4.17
2018-01-03T09:11:11.616Z,2.90
2018-01-03T09:13:39.442Z,2.50
2018-01-03T09:16:07.276Z,3.50
2018-01-03T09:21:27.309Z,2.40
2018-01-03T09:23:55.128Z,3.10
2018-01-03T09:26:22.980Z,4.93
2018-01-03T09:28:50.812Z,3.83
2018-01-03T09:31:18.648Z,2.30
2018-01-03T09:33:46.469Z,3.23
2018-01-03T09:36:14.327Z,3.07
2018-01-03T09:38:42.145Z,3.73
2018-01-03T09:41:10.011Z,2.57
2018-01-03T09:43:37.868Z,4.70
2018-01-03T09:46:05.758Z,2.77
2018-01-03T09:48:33.669Z,2.90
2018-01-03T09:51:01.532Z,2.83
2018-01-03T09:53:29.378Z,3.70
2018-01-03T09:55:57.204Z,4.07
2018-01-03T10:01:28.536Z,3.10
2018-01-03T10:03:56.380Z,4.10
2018-01-03T10:06:24.216Z,5.23
2018-01-03T10:08:52.066Z,3.77
2018-01-03T10:11:19.924Z,4.70
2018-01-03T10:13:47.771Z,2.83
2018-01-03T10:16:15.619Z,2.77
2018-01-03T10:18:43.483Z,3.57
2018-01-03T10:21:11.310Z,3.30
2018-01-03T10:23:39.124Z,3.00
2018-01-03T10:26:06.964Z,3.80
2018-01-03T10:28:34.813Z,6.43
2018-01-03T10:31:02.667Z,3.20
2018-01-03T10:33:30.527Z,4.80
2018-01-03T10:35:58.389Z,3.80
2018-01-03T10:38:26.264Z,2.73
2018-01-03T10:40:54.097Z,3.73
2018-01-03T10:43:21.932Z,2.20
2018-01-03T10:45:49.769Z,3.33
2018-01-03T10:48:17.611Z,3.57
2018-01-03T10:50:45.452Z,3.93
2018-01-03T10:53:13.291Z,5.40
2018-01-03T10:55:41.121Z,2.50
2018-01-03T10:58:15.697Z,3.17
2018-01-03T11:00:43.560Z,3.27
2018-01-03T11:03:11.384Z,3.70
2018-01-03T11:05:39.226Z,2.30
2018-01-03T11:08:07.052Z,2.23
2018-01-03T11:10:34.898Z,3.60
2018-01-03T11:13:02.800Z,4.70
2018-01-03T11:15:30.643Z,4.47
2018-01-03T11:18:04.552Z,2.50
2018-01-03T11:20:32.374Z,3.90
2018-01-03T11:23:00.204Z,3.70
2018-01-03T11:25:28.023Z,3.70
2018-01-03T11:28:02.158Z,3.73
2018-01-03T11:30:30.020Z,2.90
2018-01-03T11:32:57.838Z,3.43
2018-01-03T11:35:25.659Z,3.73
2018-01-03T11:37:53.513Z,3.37
2018-01-03T11:40:21.353Z,3.77
2018-01-03T11:42:49.191Z,5.07
2018-01-03T11:45:17.043Z,3.20
2018-01-03T11:47:44.892Z,3.50
2018-01-03T11:50:12.757Z,4.03
2018-01-03T11:52:40.579Z,3.27
2018-01-03T11:55:08.428Z,3.90
2018-01-03T11:57:36.244Z,4.40
2018-01-03T12:00:04.058Z,4.10
2018-01-03T12:02:31.885Z,3.93
2018-01-03T12:04:59.753Z,3.93
2018-01-03T12:07:27.623Z,4.57
2018-01-03T12:09:55.499Z,4.37
2018-01-03T12:12:23.327Z,3.97
2018-01-03T12:14:51.176Z,3.07
2018-01-03T12:17:26.848Z,2.67
2018-01-03T12:19:54.817Z,5.67
2018-01-03T12:22:22.692Z,3.40
2018-01-03T12:24:50.528Z,2.70
2018-01-03T12:27:24.448Z,4.17
2018-01-03T12:29:52.322Z,2.93
2018-01-03T12:32:20.175Z,3.03
2018-01-03T12:34:48.692Z,2.53
2018-01-03T12:37:16.540Z,2.93
2018-01-03T12:39:44.384Z,2.90
2018-01-03T12:42:12.216Z,3.70
2018-01-03T12:44:40.089Z,3.30
2018-01-03T12:47:07.949Z,3.30
2018-01-03T12:49:35.784Z,2.83
2018-01-03T12:52:03.684Z,3.00
2018-01-03T12:54:31.536Z,2.53
2018-01-03T12:59:59.335Z,3.90
2018-01-03T13:02:27.182Z,2.70
2018-01-03T13:04:55.048Z,1.70
2018-01-03T13:07:22.916Z,2.03
2018-01-03T13:09:50.747Z,2.03
2018-01-03T13:12:18.616Z,2.03
2018-01-03T13:14:46.483Z,2.60
2018-01-03T13:17:20.600Z,2.30
2018-01-03T13:19:48.424Z,1.47
2018-01-03T13:22:16.293Z,1.43
2018-01-03T13:24:44.162Z,1.57
2018-01-03T13:27:18.157Z,1.50
2018-01-03T13:29:46.020Z,1.90
2018-01-03T13:32:13.882Z,1.58
2018-01-03T13:34:41.726Z,1.03
2018-01-03T13:37:09.588Z,2.23
2018-01-03T13:39:37.416Z,1.67
2018-01-03T13:42:05.276Z,1.83
2018-01-03T13:44:33.150Z,2.50
2018-01-03T13:49:55.404Z,2.10
2018-01-03T13:52:23.271Z,2.20
2018-01-03T13:54:51.139Z,1.98
2018-01-03T13:57:19.140Z,1.23
2018-01-03T13:59:46.987Z,1.50
2018-01-03T14:02:14.882Z,2.13
2018-01-03T14:04:42.752Z,1.10
2018-01-03T14:10:17.431Z,2.05
2018-01-03T14:12:46.561Z,1.55
2018-01-03T14:15:14.984Z,1.87
2018-01-03T14:17:42.838Z,1.37
2018-01-03T14:28:55.036Z,1.60
2018-01-03T14:31:23.293Z,1.27
2018-01-03T14:39:47.916Z,1.60
2018-01-03T14:42:15.748Z,1.03
2018-01-03T14:44:53.288Z,1.45
2018-01-03T14:47:21.198Z,0.90
2018-01-03T14:49:49.088Z,1.60
2018-01-03T14:52:16.955Z,1.33
2018-01-03T14:54:45.038Z,1.57
2018-01-03T14:57:30.050Z,0.97
2018-01-03T15:05:46.500Z,1.40
2018-01-03T15:08:16.324Z,2.13
2018-01-03T15:10:45.585Z,2.37
2018-01-03T15:13:13.576Z,2.20
2018-01-03T15:15:41.539Z,2.40
2018-01-03T15:18:09.428Z,2.10
2018-01-03T15:20:38.309Z,3.00
2018-01-03T15:23:06.196Z,2.07
2018-01-03T15:25:34.005Z,1.77
2018-01-03T15:28:01.898Z,6.30
2018-01-03T15:30:29.783Z,2.20
2018-01-03T15:32:57.672Z,4.90
2018-01-03T15:35:25.597Z,3.93
2018-01-03T15:37:53.454Z,2.30
2018-01-03T15:40:28.337Z,2.03
2018-01-03T15:48:53.153Z,3.10
2018-01-03T15:51:21.013Z,3.53
2018-01-03T15:53:48.848Z,2.97
2018-01-03T15:56:16.741Z,1.97
2018-01-03T15:58:44.583Z,3.05
2018-01-03T16:01:12.472Z,1.90
2018-01-03T16:03:51.436Z,1.10
2018-01-03T16:06:19.361Z,2.00
2018-01-03T16:08:53.661Z,2.77
2018-01-03T16:11:25.095Z,0.90
2018-01-03T16:13:53.433Z,1.30
2018-01-03T16:16:21.265Z,1.43
2018-01-03T16:18:49.263Z,1.50
2018-01-03T16:21:17.169Z,1.20
2018-01-03T16:23:53.380Z,1.60
2018-01-03T16:26:23.710Z,2.57
2018-01-03T16:28:51.564Z,2.60
2018-01-03T16:31:19.445Z,2.00
2018-01-03T16:45:39.060Z,2.07
2018-01-03T16:48:17.717Z,2.10
2018-01-03T16:50:45.572Z,4.23
2018-01-03T16:53:13.424Z,3.25
2018-01-03T16:55:42.330Z,4.30
2018-01-03T17:10:03.964Z,4.60
2018-01-03T17:15:22.448Z,1.80
2018-01-03T17:23:39.724Z,4.87
2018-01-03T17:26:07.884Z,3.87
2018-01-03T17:31:30.830Z,5.03
2018-01-03T17:36:53.261Z,2.23
2018-01-03T17:39:24.265Z,2.70
2018-01-03T17:41:53.624Z,3.13
2018-01-03T17:44:25.041Z,2.15
2018-01-03T17:46:56.813Z,1.93
2018-01-03T17:52:19.086Z,2.08
2018-01-03T17:57:41.713Z,1.50
2018-01-03T18:00:23.754Z,1.67
2018-01-03T18:02:55.126Z,1.62
2018-01-03T18:05:23.273Z,1.57
2018-01-03T18:07:51.157Z,2.20
2018-01-03T18:13:15.004Z,1.70
2018-01-03T18:15:43.521Z,1.40
2018-01-03T18:18:28.868Z,1.70
2018-01-03T18:20:56.764Z,1.37
2018-01-03T18:23:24.635Z,2.60
2018-01-03T18:34:53.649Z,2.30
2018-01-03T18:54:53.291Z,1.00
2018-01-03T19:00:18.479Z,0.93
2018-01-03T19:03:03.077Z,1.58
2018-01-03T19:08:36.211Z,1.80
2018-01-03T19:20:00.389Z,1.80
2018-01-03T19:22:28.248Z,1.52
2018-01-03T19:27:54.376Z,2.00
2018-01-03T19:30:22.160Z,2.15
2018-01-03T19:32:50.827Z,1.97
2018-01-03T19:35:25.109Z,2.05
2018-01-03T19:37:59.252Z,2.47
2018-01-03T19:40:27.099Z,2.55
2018-01-03T19:42:54.965Z,2.75
2018-01-03T19:45:25.173Z,4.07
2018-01-03T19:50:56.345Z,4.43
2018-01-03T19:53:24.365Z,5.07
2018-01-03T19:55:52.261Z,6.20
2018-01-03T20:01:25.403Z,5.57
2018-01-03T20:07:03.314Z,6.30
2018-01-03T20:09:31.210Z,6.03
2018-01-03T20:18:09.378Z,5.63
2018-01-03T20:20:37.309Z,7.35
2018-01-03T20:26:02.203Z,4.00
2018-01-03T20:34:17.001Z,5.67
2018-01-03T20:36:44.877Z,5.40
2018-01-03T20:42:07.910Z,4.57
2018-01-03T20:50:32.190Z,4.60
2018-01-03T20:53:00.168Z,3.95
2018-01-03T21:01:27.912Z,3.50
2018-01-03T21:03:56.312Z,5.33
2018-01-03T21:06:36.756Z,3.83
2018-01-03T21:09:06.758Z,3.20
2018-01-03T21:11:34.637Z,3.20
2018-01-03T21:14:02.504Z,4.23
2018-01-03T21:16:30.367Z,4.43
2018-01-03T21:19:09.919Z,4.37
2018-01-03T21:27:14.547Z,4.10
2018-01-03T21:29:42.424Z,4.00
2018-01-03T21:32:12.527Z,3.53
2018-01-03T21:34:53.594Z,4.50
2018-01-03T21:37:24.077Z,3.17
2018-01-03T21:39:54.043Z,4.60
2018-01-03T21:42:22.404Z,3.90
2018-01-03T21:44:53.755Z,5.10
2018-01-03T21:50:26.839Z,5.33
2018-01-03T21:52:56.976Z,4.27
2018-01-03T21:55:24.850Z,3.90
2018-01-03T21:57:55.842Z,3.60
2018-01-03T22:05:50.949Z,6.87
2018-01-03T22:08:18.932Z,5.03
2018-01-03T22:10:53.309Z,4.13
2018-01-03T22:13:21.276Z,4.20
2018-01-03T22:15:49.208Z,2.70
2018-01-03T22:18:17.065Z,4.90
2018-01-03T22:20:45.852Z,5.53
2018-01-03T22:23:23.493Z,3.73
2018-01-03T22:25:54.734Z,4.23
2018-01-03T22:28:33.033Z,3.30
2018-01-03T22:33:53.156Z,5.33
2018-01-03T22:36:21.028Z,3.90
2018-01-03T22:38:48.899Z,3.30
2018-01-03T22:41:16.757Z,3.43
2018-01-03T22:43:44.660Z,3.23
2018-01-03T22:46:12.441Z,5.10
2018-01-03T22:48:40.292Z,4.90
2018-01-03T22:51:08.152Z,3.93
2018-01-03T22:53:36.015Z,4.10
2018-01-03T22:56:03.852Z,4.67
2018-01-03T22:58:31.746Z,4.30
2018-01-03T23:00:59.565Z,6.03
2018-01-03T23:03:33.645Z,4.67
2018-01-03T23:06:01.669Z,4.47
2018-01-03T23:08:36.333Z,4.10
2018-01-03T23:11:04.197Z,4.47
2018-01-03T23:13:32.134Z,6.10
2018-01-03T23:16:00.006Z,3.73
2018-01-03T23:18:27.848Z,4.17
2018-01-03T23:20:55.665Z,3.60
2018-01-03T23:23:23.532Z,3.27
2018-01-03T23:25:51.372Z,4.63
2018-01-03T23:28:19.873Z,3.60
2018-01-03T23:30:48.701Z,4.57
2018-01-03T23:33:16.707Z,4.30
2018-01-03T23:35:44.593Z,6.37
2018-01-03T23:38:12.470Z,4.70
2018-01-03T23:40:54.089Z,3.80
2018-01-03T23:43:24.298Z,4.77
2018-01-03T23:45:53.788Z,6.07
2018-01-03T23:48:21.777Z,5.57
2018-01-03T23:50:49.717Z,5.10
2018-01-03T23:53:23.729Z,4.90
2018-01-03T23:55:53.693Z,7.07
2018-01-03T23:58:21.526Z,5.40
